Time;durP1;ratioP1;P1;durP2;ratioP2;P2;SDS_P1;SDS_P2;PMS_P1;PMS_P2;Temp;Humidity;BMP_temperature;BMP_pressure;BME280_temperature;BME280_humidity;BME280_pressure;Samples;Min_cycle;Max_cycle;Signal;HPM_P1;HPM_P2
2023/02/22 00:00:42;;;;;;;9.60;4.20;;;8.90;92.30;;;;;;5119937;27;20015;-67
2023/02/22 00:03:16;;;;;;;10.07;3.95;;;8.80;92.30;;;;;;5119665;27;20022;-67
2023/02/22 00:05:46;;;;;;;7.15;3.10;;;8.80;92.40;;;;;;5119096;27;20074;-66
2023/02/22 00:08:16;;;;;;;10.00;3.60;;;8.80;92.30;;;;;;5113453;27;20023;-66
2023/02/22 00:10:43;;;;;;;6.15;3.05;;;8.80;92.40;;;;;;5119361;27;20038;-67
2023/02/22 00:13:12;;;;;;;10.90;4.30;;;8.80;92.40;;;;;;5114966;27;20035;-67
2023/02/22 00:15:40;;;;;;;6.50;2.58;;;8.90;92.40;;;;;;5114872;27;20020;-68
2023/02/22 00:18:09;;;;;;;6.47;3.05;;;8.90;92.30;;;;;;5117398;27;20027;-68
2023/02/22 00:20:38;;;;;;;8.68;3.60;;;8.80;92.60;;;;;;5115256;27;20027;-68
2023/02/22 00:23:12;;;;;;;9.50;3.25;;;8.80;92.30;;;;;;5121576;27;20027;-68
2023/02/22 00:25:38;;;;;;;9.85;3.83;;;8.80;92.30;;;;;;5114839;27;20470;-67
2023/02/22 00:28:04;;;;;;;8.57;3.20;;;8.80;92.30;;;;;;5118120;27;20082;-67
2023/02/22 00:30:30;;;;;;;8.48;2.83;;;8.80;92.30;;;;;;5116377;27;20720;-68
2023/02/22 00:32:57;;;;;;;8.38;3.40;;;8.80;92.20;;;;;;5115094;27;20032;-68
2023/02/22 00:35:25;;;;;;;8.68;3.60;;;8.90;92.20;;;;;;5107966;28;20019;-68
2023/02/22 00:37:54;;;;;;;10.02;3.50;;;8.80;92.10;;;;;;5096796;28;20024;-66
2023/02/22 00:40:23;;;;;;;8.93;3.65;;;8.80;92.10;;;;;;5106872;28;20028;-68
2023/02/22 00:42:49;;;;;;;8.88;3.38;;;8.80;92.10;;;;;;5107091;28;20032;-68
2023/02/22 00:45:17;;;;;;;9.20;3.25;;;8.80;92.10;;;;;;5110308;28;20419;-67
2023/02/22 00:47:43;;;;;;;10.20;3.80;;;8.90;92.10;;;;;;5115694;27;20040;-67
2023/02/22 00:50:09;;;;;;;9.57;3.90;;;8.80;91.90;;;;;;5101613;28;20120;-67
2023/02/22 00:52:36;;;;;;;8.00;2.97;;;8.80;92.00;;;;;;5108830;28;20023;-67
2023/02/22 00:55:04;;;;;;;7.63;3.28;;;8.80;92.10;;;;;;5117416;27;20031;-67
2023/02/22 00:57:30;;;;;;;6.63;2.92;;;8.80;92.00;;;;;;5110616;28;20075;-68
2023/02/22 00:59:56;;;;;;;9.18;3.05;;;8.80;92.00;;;;;;5109686;28;20028;-67
2023/02/22 01:02:21;;;;;;;7.40;2.70;;;8.80;92.00;;;;;;5110456;28;20023;-66
2023/02/22 01:04:47;;;;;;;10.38;4.00;;;8.70;92.00;;;;;;5111538;27;20088;-68
2023/02/22 01:07:13;;;;;;;8.20;3.53;;;8.70;92.00;;;;;;5105952;28;20040;-68
2023/02/22 01:09:40;;;;;;;9.75;4.00;;;8.70;92.10;;;;;;5100664;27;20029;-69
2023/02/22 01:12:06;;;;;;;7.38;3.13;;;8.80;92.10;;;;;;5102915;27;20033;-67
2023/02/22 01:14:32;;;;;;;7.82;3.60;;;8.70;92.00;;;;;;5105562;28;20028;-68
2023/02/22 01:16:58;;;;;;;10.68;4.40;;;8.70;92.00;;;;;;5107256;27;20020;-67
2023/02/22 01:19:24;;;;;;;8.07;3.28;;;8.70;92.00;;;;;;5113265;27;20101;-67
2023/02/22 01:21:50;;;;;;;10.30;4.07;;;8.70;92.00;;;;;;5106580;28;20023;-69
2023/02/22 01:24:16;;;;;;;9.85;3.95;;;8.80;92.00;;;;;;5102272;28;20371;-68
2023/02/22 01:26:44;;;;;;;8.75;3.88;;;8.70;91.90;;;;;;5119199;27;20027;-67
2023/02/22 01:29:14;;;;;;;16.33;5.40;;;8.80;91.90;;;;;;5105059;27;20016;-69
2023/02/22 01:31:51;;;;;;;12.60;4.55;;;8.80;91.80;;;;;;5107438;27;20027;-68
2023/02/22 01:34:17;;;;;;;9.95;3.97;;;8.70;91.70;;;;;;5095569;28;20490;-68
2023/02/22 01:36:43;;;;;;;10.00;4.15;;;8.60;91.60;;;;;;5099305;28;20782;-67
2023/02/22 01:39:09;;;;;;;9.27;3.88;;;8.60;91.70;;;;;;5092560;27;20036;-67
2023/02/22 01:41:38;;;;;;;9.10;3.67;;;8.60;91.80;;;;;;5102956;27;20044;-67
2023/02/22 01:44:26;;;;;;;6.78;2.83;;;8.60;91.70;;;;;;5119330;27;20027;-67
2023/02/22 01:46:53;;;;;;;5.70;2.85;;;8.60;91.70;;;;;;5115566;27;20063;-68
2023/02/22 01:49:20;;;;;;;7.72;2.95;;;8.60;91.80;;;;;;5121151;27;20470;-68
2023/02/22 01:51:49;;;;;;;7.22;2.90;;;8.60;91.80;;;;;;5117465;27;20106;-68
2023/02/22 01:54:17;;;;;;;5.88;3.03;;;8.60;91.70;;;;;;5105170;28;20108;-69
2023/02/22 01:57:10;;;;;;;11.07;4.32;;;8.50;91.80;;;;;;5112801;27;20053;-68
2023/02/22 01:59:40;;;;;;;10.32;3.92;;;8.50;91.80;;;;;;5111362;27;20500;-67
2023/02/22 02:02:06;;;;;;;9.93;3.53;;;8.50;91.80;;;;;;5115213;27;20024;-68
2023/02/22 02:04:33;;;;;;;6.95;2.50;;;8.60;91.80;;;;;;5130996;27;20032;-68
2023/02/22 02:07:05;;;;;;;9.90;3.75;;;8.50;91.70;;;;;;5093926;27;20424;-68
2023/02/22 02:09:35;;;;;;;;;;;8.60;91.80;;;;;;5114995;27;20034;-68
2023/02/22 02:12:03;;;;;;;6.70;3.20;;;8.50;91.70;;;;;;5118753;27;19914;-68
2023/02/22 02:14:32;;;;;;;10.05;4.05;;;8.40;91.70;;;;;;5114168;27;20019;-69
2023/02/22 02:17:00;;;;;;;9.05;3.55;;;8.30;91.70;;;;;;5119628;27;20042;-68
2023/02/22 02:19:44;;;;;;;7.85;3.20;;;8.30;92.00;;;;;;5109416;27;20015;-68
2023/02/22 02:22:27;;;;;;;11.88;4.28;;;8.30;92.00;;;;;;5106339;27;20024;-67
2023/02/22 02:25:18;;;;;;;12.48;4.72;;;8.20;92.00;;;;;;5106799;28;20055;-68
2023/02/22 02:28:37;;;;;;;13.95;5.15;;;8.10;92.00;;;;;;5104821;28;20491;-67
2023/02/22 02:31:33;;;;;;;12.60;4.40;;;8.10;92.10;;;;;;5066993;28;20029;-69
2023/02/22 02:34:13;;;;;;;8.85;4.20;;;8.10;92.10;;;;;;5099150;28;20024;-68
2023/02/22 02:36:46;;;;;;;12.50;4.40;;;8.10;91.90;;;;;;5105942;27;20031;-68
2023/02/22 02:39:28;;;;;;;;;;;8.10;91.90;;;;;;5107100;27;20023;-67
2023/02/22 02:41:56;;;;;;;7.82;3.45;;;8.10;91.90;;;;;;5095317;28;20434;-67
2023/02/22 02:44:34;;;;;;;11.60;4.57;;;8.00;92.00;;;;;;5119822;27;20031;-67
2023/02/22 02:47:06;;;;;;;9.18;3.70;;;8.00;92.00;;;;;;5106186;27;20046;-68
2023/02/22 02:49:54;;;;;;;11.43;4.72;;;8.10;92.10;;;;;;5101248;28;20069;-68
2023/02/22 02:52:23;;;;;;;13.88;4.80;;;8.10;92.00;;;;;;5104095;28;20016;-68
2023/02/22 02:54:50;;;;;;;17.85;5.97;;;8.10;91.90;;;;;;5101531;28;20028;-68
2023/02/22 02:57:15;;;;;;;10.75;3.90;;;8.10;91.80;;;;;;5101958;28;20034;-68
2023/02/22 02:59:41;;;;;;;9.10;4.07;;;8.20;91.80;;;;;;5103445;28;20020;-68
2023/02/22 03:02:49;;;;;;;10.27;4.57;;;8.20;91.80;;;;;;5103662;28;20110;-68
2023/02/22 03:05:33;;;;;;;14.82;5.47;;;8.30;91.70;;;;;;5112865;27;20032;-67
2023/02/22 03:08:11;;;;;;;13.85;4.63;;;8.20;91.50;;;;;;5114675;27;20056;-67
2023/02/22 03:10:43;;;;;;;13.02;4.25;;;8.20;91.60;;;;;;5105431;28;20039;-68
2023/02/22 03:13:19;;;;;;;9.65;3.10;;;8.20;91.50;;;;;;5099341;27;20028;-69
2023/02/22 03:16:01;;;;;;;9.55;3.75;;;8.20;91.60;;;;;;5100783;28;20046;-68
2023/02/22 03:18:39;;;;;;;9.38;3.50;;;8.10;91.60;;;;;;5110717;27;20035;-68
2023/02/22 03:21:28;;;;;;;11.40;4.35;;;8.10;91.70;;;;;;5104701;28;20476;-68
2023/02/22 03:24:12;;;;;;;7.90;3.47;;;8.10;91.70;;;;;;5103584;28;20020;-68
2023/02/22 03:26:53;;;;;;;11.93;4.43;;;8.10;91.70;;;;;;5093966;28;20031;-68
2023/02/22 03:29:23;;;;;;;7.13;3.03;;;8.10;91.80;;;;;;5103301;28;20375;-68
2023/02/22 03:32:00;;;;;;;8.38;3.20;;;8.20;91.80;;;;;;5093383;28;20047;-67
2023/02/22 03:34:29;;;;;;;6.55;2.85;;;8.10;91.70;;;;;;5104223;28;20023;-68
2023/02/22 03:37:02;;;;;;;9.82;3.78;;;8.20;91.70;;;;;;5093591;27;20028;-68
2023/02/22 03:39:31;;;;;;;9.48;3.42;;;8.20;91.70;;;;;;5088497;28;20040;-67
2023/02/22 03:42:07;;;;;;;9.68;3.92;;;8.10;91.60;;;;;;5086795;28;20578;-67
2023/02/22 03:44:36;;;;;;;8.60;3.88;;;8.00;91.70;;;;;;5087008;28;20093;-68
2023/02/22 03:47:08;;;;;;;7.45;3.20;;;8.00;91.80;;;;;;5104895;28;20051;-68
2023/02/22 03:49:56;;;;;;;9.70;3.58;;;8.00;91.80;;;;;;5105052;28;20507;-68
2023/02/22 03:52:22;;;;;;;10.68;4.80;;;8.00;91.90;;;;;;5104524;28;20076;-68
2023/02/22 03:54:54;;;;;;;10.23;4.00;;;8.00;91.90;;;;;;5103987;28;20517;-68
2023/02/22 03:57:26;;;;;;;6.13;3.17;;;8.00;91.80;;;;;;5102823;28;20439;-69
2023/02/22 03:59:52;;;;;;;10.27;3.70;;;8.00;91.80;;;;;;5102231;28;20481;-68
2023/02/22 04:02:17;;;;;;;7.82;2.88;;;8.00;91.80;;;;;;5088697;28;20043;-68
2023/02/22 04:04:44;;;;;;;7.65;2.97;;;8.00;91.80;;;;;;5097219;28;20085;-67
2023/02/22 04:07:10;;;;;;;9.18;4.00;;;8.00;92.00;;;;;;5096355;28;20050;-67
2023/02/22 04:09:36;;;;;;;7.43;3.10;;;8.00;91.70;;;;;;5103602;28;20055;-67
2023/02/22 04:12:02;;;;;;;12.10;4.50;;;8.00;91.70;;;;;;5106157;28;20027;-67
2023/02/22 04:14:28;;;;;;;10.52;3.72;;;8.00;91.60;;;;;;5106942;28;20034;-68
2023/02/22 04:16:54;;;;;;;10.38;3.70;;;7.90;91.70;;;;;;5108138;28;20055;-67
2023/02/22 04:19:20;;;;;;;10.45;4.18;;;8.00;91.80;;;;;;5102039;28;20397;-66
2023/02/22 04:21:45;;;;;;;7.50;3.15;;;8.00;91.80;;;;;;5105624;28;20020;-68
2023/02/22 04:24:11;;;;;;;10.25;4.22;;;8.00;91.70;;;;;;5098551;28;20035;-68
2023/02/22 04:26:36;;;;;;;12.68;4.78;;;7.90;91.60;;;;;;5103497;28;20073;-67
2023/02/22 04:29:03;;;;;;;11.88;3.83;;;7.90;91.80;;;;;;5106881;28;20020;-67
2023/02/22 04:31:29;;;;;;;7.72;3.35;;;7.90;91.80;;;;;;5106009;28;20046;-67
2023/02/22 04:33:54;;;;;;;6.25;3.15;;;7.90;91.70;;;;;;5099002;28;21733;-67
2023/02/22 04:36:20;;;;;;;9.43;3.58;;;7.90;91.80;;;;;;5099544;28;20028;-68
2023/02/22 04:38:46;;;;;;;11.07;3.85;;;7.90;91.70;;;;;;5098178;28;20454;-68
2023/02/22 04:41:12;;;;;;;9.32;3.95;;;7.80;91.80;;;;;;5102465;28;20020;-69
2023/02/22 04:43:37;;;;;;;13.02;4.72;;;7.80;91.80;;;;;;5101333;28;20560;-68
2023/02/22 04:46:03;;;;;;;10.30;4.03;;;7.80;91.90;;;;;;5109452;27;20051;-69
2023/02/22 04:48:29;;;;;;;8.45;3.75;;;7.80;91.90;;;;;;5118278;27;20022;-68
2023/02/22 04:50:54;;;;;;;8.88;3.83;;;7.80;91.80;;;;;;5103449;28;20112;-68
2023/02/22 04:53:20;;;;;;;10.73;4.15;;;7.70;91.80;;;;;;5101212;27;20035;-68
2023/02/22 04:55:46;;;;;;;8.90;3.08;;;7.60;91.90;;;;;;5120745;27;20489;-68
2023/02/22 04:58:11;;;;;;;7.07;3.15;;;7.60;92.00;;;;;;5119063;27;20031;-68
2023/02/22 05:00:37;;;;;;;14.45;4.47;;;7.60;92.00;;;;;;5107579;28;20030;-67
2023/02/22 05:03:03;;;;;;;7.05;3.08;;;7.50;92.00;;;;;;5107026;28;20474;-66
2023/02/22 05:05:28;;;;;;;10.30;4.28;;;7.60;92.10;;;;;;5110540;27;20068;-68
2023/02/22 05:07:54;;;;;;;14.18;5.22;;;7.50;92.00;;;;;;5118987;27;20068;-69
2023/02/22 05:10:19;;;;;;;10.45;4.70;;;7.40;92.10;;;;;;5111024;28;20032;-68
2023/02/22 05:12:45;;;;;;;10.68;4.22;;;7.30;92.30;;;;;;5102516;27;20062;-68
2023/02/22 05:15:17;;;;;;;11.68;4.65;;;7.40;92.30;;;;;;5102201;28;20043;-68
2023/02/22 05:17:43;;;;;;;12.68;4.85;;;7.40;92.30;;;;;;5114446;27;20098;-69
2023/02/22 05:20:16;;;;;;;9.88;3.70;;;7.40;92.30;;;;;;5097990;28;20115;-67
2023/02/22 05:22:42;;;;;;;11.30;4.70;;;7.40;92.20;;;;;;5107966;28;20024;-67
2023/02/22 05:25:10;;;;;;;9.57;4.55;;;7.30;92.30;;;;;;5106802;27;20029;-67
2023/02/22 05:27:35;;;;;;;12.15;5.35;;;7.40;92.30;;;;;;5100728;28;20024;-67
2023/02/22 05:30:01;;;;;;;8.70;3.50;;;7.30;92.30;;;;;;5100080;28;20034;-69
2023/02/22 05:32:26;;;;;;;7.75;3.83;;;7.30;92.30;;;;;;5110315;27;20023;-68
2023/02/22 05:34:52;;;;;;;11.95;4.70;;;7.30;92.30;;;;;;5106839;27;20036;-69
2023/02/22 05:37:17;;;;;;;9.60;3.70;;;7.30;92.30;;;;;;5106219;27;20032;-68
2023/02/22 05:39:45;;;;;;;8.07;3.35;;;7.30;92.20;;;;;;5116399;27;20031;-69
2023/02/22 05:42:11;;;;;;;12.20;4.68;;;7.30;92.20;;;;;;5107000;27;20458;-67
2023/02/22 05:44:36;;;;;;;19.77;6.72;;;7.20;92.20;;;;;;5103478;27;20049;-67
2023/02/22 05:47:04;;;;;;;14.48;5.35;;;7.10;92.30;;;;;;5104871;27;20024;-66
2023/02/22 05:49:30;;;;;;;13.77;5.30;;;7.10;92.50;;;;;;5101604;28;20031;-67
2023/02/22 05:51:58;;;;;;;13.70;5.85;;;7.10;92.70;;;;;;5102282;28;20121;-67
2023/02/22 05:54:24;;;;;;;13.45;5.97;;;7.00;92.70;;;;;;5107077;27;20464;-67
2023/02/22 05:56:49;;;;;;;18.55;7.30;;;7.00;92.70;;;;;;5104960;27;20099;-67
2023/02/22 05:59:15;;;;;;;12.00;5.55;;;7.00;92.70;;;;;;5106084;28;20115;-67
2023/02/22 06:01:40;;;;;;;11.00;4.32;;;7.00;92.80;;;;;;5101991;27;20047;-67
2023/02/22 06:04:06;;;;;;;14.48;5.28;;;7.00;92.70;;;;;;5110331;27;20027;-66
2023/02/22 06:06:32;;;;;;;12.27;5.95;;;7.10;92.70;;;;;;5105178;27;20023;-67
2023/02/22 06:08:57;;;;;;;16.52;5.65;;;7.00;92.60;;;;;;5100269;27;20490;-67
2023/02/22 06:11:23;;;;;;;13.60;5.25;;;7.10;92.70;;;;;;5106906;28;20028;-66
2023/02/22 06:13:52;;;;;;;16.02;5.53;;;7.10;92.60;;;;;;5112940;27;20103;-67
2023/02/22 06:16:20;;;;;;;13.45;4.97;;;7.00;92.60;;;;;;5109446;27;20071;-67
2023/02/22 06:18:46;;;;;;;14.07;5.35;;;7.00;92.80;;;;;;5113145;27;20008;-67
2023/02/22 06:21:11;;;;;;;11.52;4.20;;;7.00;92.70;;;;;;5115887;27;20038;-67
2023/02/22 06:23:37;;;;;;;13.52;5.72;;;7.00;92.70;;;;;;5123030;27;20103;-67
2023/02/22 06:26:03;;;;;;;10.38;4.32;;;7.00;92.80;;;;;;5102481;27;20478;-67
2023/02/22 06:28:28;;;;;;;10.60;4.82;;;7.00;92.80;;;;;;5099612;28;20501;-67
2023/02/22 06:30:54;;;;;;;15.27;5.97;;;6.90;92.80;;;;;;5118180;27;20386;-67
2023/02/22 06:33:19;;;;;;;8.85;3.42;;;6.90;92.80;;;;;;5101546;27;20027;-67
2023/02/22 06:35:45;;;;;;;10.13;4.18;;;7.00;92.80;;;;;;5096826;28;20103;-67
2023/02/22 06:38:19;;;;;;;9.57;3.92;;;7.00;92.80;;;;;;5106980;27;20027;-67
2023/02/22 06:40:44;;;;;;;10.10;4.28;;;6.90;92.80;;;;;;5111742;27;20019;-67
2023/02/22 06:43:10;;;;;;;12.98;4.72;;;6.90;92.90;;;;;;5112748;27;20043;-67
2023/02/22 06:45:35;;;;;;;10.10;3.22;;;6.90;92.90;;;;;;5116423;27;20016;-68
2023/02/22 06:48:01;;;;;;;27.98;7.18;;;7.00;92.90;;;;;;5107979;28;20024;-68
2023/02/22 06:50:29;;;;;;;17.67;4.97;;;7.00;93.20;;;;;;5108768;28;20141;-67
2023/02/22 06:52:55;;;;;;;9.35;4.03;;;7.00;92.90;;;;;;5110839;28;20028;-67
2023/02/22 06:55:30;;;;;;;10.70;4.53;;;6.90;92.90;;;;;;5107017;28;20028;-67
2023/02/22 06:57:56;;;;;;;7.82;3.03;;;6.90;93.00;;;;;;5097518;28;20470;-67
2023/02/22 07:00:24;;;;;;;9.45;4.18;;;6.90;93.10;;;;;;5101510;28;20027;-67
2023/02/22 07:02:50;;;;;;;8.00;3.63;;;6.90;93.00;;;;;;5117578;27;20068;-67
2023/02/22 07:05:18;;;;;;;8.45;3.85;;;6.90;93.00;;;;;;5126795;27;20034;-67
2023/02/22 07:07:44;;;;;;;9.52;4.03;;;6.90;93.10;;;;;;5105874;27;20026;-67
2023/02/22 07:10:20;;;;;;;7.45;3.13;;;6.90;93.20;;;;;;5112199;27;20115;-67
2023/02/22 07:12:45;;;;;;;8.30;3.40;;;6.90;93.30;;;;;;5124845;27;20103;-67
2023/02/22 07:15:12;;;;;;;8.52;3.83;;;7.00;93.30;;;;;;5127656;27;20457;-67
2023/02/22 07:17:40;;;;;;;8.52;3.88;;;6.90;93.30;;;;;;5107533;28;20429;-67
2023/02/22 07:20:07;;;;;;;9.35;3.67;;;6.90;93.30;;;;;;5115093;27;20032;-67
2023/02/22 07:22:32;;;;;;;11.30;5.20;;;6.90;93.40;;;;;;5107158;28;20095;-67
2023/02/22 07:24:59;;;;;;;10.75;4.82;;;6.90;93.40;;;;;;5122701;28;20094;-67
2023/02/22 07:27:24;;;;;;;9.43;4.30;;;6.90;93.50;;;;;;5112182;27;20127;-67
2023/02/22 07:29:50;;;;;;;7.47;3.85;;;6.90;93.60;;;;;;5118777;27;20019;-67
2023/02/22 07:32:16;;;;;;;10.52;3.45;;;7.00;93.60;;;;;;5118039;28;20370;-67
2023/02/22 07:34:41;;;;;;;5.50;2.67;;;7.00;93.70;;;;;;5129526;27;20030;-67
2023/02/22 07:37:07;;;;;;;5.82;2.63;;;7.00;93.60;;;;;;5110196;27;20061;-67
2023/02/22 07:39:33;;;;;;;7.47;3.45;;;7.00;93.60;;;;;;5119000;27;20031;-67
2023/02/22 07:41:59;;;;;;;6.70;2.85;;;7.10;93.60;;;;;;5101636;27;20073;-67
2023/02/22 07:44:25;;;;;;;5.85;2.72;;;7.10;93.50;;;;;;5114187;28;20016;-67
2023/02/22 07:46:50;;;;;;;5.93;2.70;;;7.10;93.60;;;;;;5109602;28;20478;-67
2023/02/22 07:49:16;;;;;;;5.60;2.78;;;7.10;93.60;;;;;;5122685;27;20057;-67
2023/02/22 07:51:42;;;;;;;5.28;2.78;;;7.20;93.60;;;;;;5114360;28;20016;-67
2023/02/22 07:54:07;;;;;;;7.75;3.60;;;7.20;93.60;;;;;;5114415;28;20080;-67
2023/02/22 07:56:33;;;;;;;7.80;3.15;;;7.20;93.50;;;;;;5118475;27;20098;-67
2023/02/22 07:59:00;;;;;;;7.40;3.13;;;7.30;93.50;;;;;;5122663;27;20023;-67
2023/02/22 08:01:25;;;;;;;7.90;3.50;;;7.30;93.50;;;;;;5094161;28;20137;-66
2023/02/22 08:03:51;;;;;;;8.60;3.28;;;7.30;93.80;;;;;;5111617;28;20118;-67
2023/02/22 08:06:17;;;;;;;24.85;4.63;;;7.30;93.60;;;;;;5126802;27;20034;-67
2023/02/22 08:08:43;;;;;;;6.93;2.67;;;7.40;93.50;;;;;;5103147;27;20024;-67
2023/02/22 08:11:08;;;;;;;5.75;2.15;;;7.40;93.50;;;;;;5101846;27;20046;-67
2023/02/22 08:13:36;;;;;;;10.23;3.70;;;7.50;93.50;;;;;;5105952;28;20028;-67
2023/02/22 08:16:02;;;;;;;4.78;2.35;;;7.50;93.40;;;;;;5106406;27;20028;-67
2023/02/22 08:18:30;;;;;;;5.25;2.58;;;7.50;93.40;;;;;;5103845;27;20500;-67
2023/02/22 08:20:56;;;;;;;5.55;2.53;;;7.50;93.40;;;;;;5103372;28;20055;-67
2023/02/22 08:23:25;;;;;;;6.32;2.88;;;7.50;93.40;;;;;;5111697;27;20115;-68
2023/02/22 08:25:51;;;;;;;9.38;3.00;;;7.50;93.80;;;;;;5107121;28;20024;-68
2023/02/22 08:28:21;;;;;;;9.27;3.13;;;7.50;93.50;;;;;;5102160;28;21630;-68
2023/02/22 08:30:46;;;;;;;6.20;2.53;;;7.60;93.50;;;;;;5100453;28;20031;-68
2023/02/22 08:33:17;;;;;;;6.55;2.60;;;7.60;93.50;;;;;;5102528;27;20027;-68
2023/02/22 08:35:43;;;;;;;7.90;3.50;;;7.70;93.50;;;;;;5104002;27;20123;-68
2023/02/22 08:38:17;;;;;;;16.08;4.72;;;7.70;93.40;;;;;;5103165;27;20189;-68
2023/02/22 08:40:42;;;;;;;15.02;5.40;;;7.70;93.40;;;;;;5103617;27;20466;-68
2023/02/22 08:43:08;;;;;;;9.60;3.42;;;7.70;93.60;;;;;;5106671;27;20016;-67
2023/02/22 08:45:36;;;;;;;10.88;3.83;;;7.70;93.40;;;;;;5103903;27;20012;-67
2023/02/22 08:48:02;;;;;;;10.10;3.92;;;7.80;93.40;;;;;;5106410;27;20015;-67
2023/02/22 08:50:32;;;;;;;9.18;3.85;;;7.80;93.40;;;;;;5107990;27;20023;-67
2023/02/22 08:52:59;;;;;;;12.57;4.45;;;7.80;93.30;;;;;;5100743;27;20058;-68
2023/02/22 08:55:30;;;;;;;11.82;4.55;;;7.80;93.30;;;;;;5102831;28;20149;-67
2023/02/22 08:57:56;;;;;;;12.80;3.53;;;7.80;93.40;;;;;;5101981;27;20051;-67
2023/02/22 09:00:24;;;;;;;9.20;3.50;;;7.80;93.30;;;;;;5107494;27;20027;-67
2023/02/22 09:02:50;;;;;;;6.55;2.50;;;7.90;93.40;;;;;;5107284;28;20027;-68
2023/02/22 09:05:15;;;;;;;14.90;5.40;;;8.00;93.30;;;;;;5110085;27;20051;-67
2023/02/22 09:07:42;;;;;;;10.98;4.40;;;7.90;93.30;;;;;;5112179;27;20077;-67
2023/02/22 09:10:14;;;;;;;13.95;4.78;;;7.80;93.50;;;;;;5104520;27;20102;-67
2023/02/22 09:12:40;;;;;;;11.48;4.22;;;7.80;93.70;;;;;;5099281;27;20080;-67
2023/02/22 09:15:06;;;;;;;16.17;5.30;;;7.80;93.80;;;;;;5107018;28;20040;-67
2023/02/22 09:17:32;;;;;;;10.00;3.95;;;7.80;93.70;;;;;;5110076;27;20015;-67
2023/02/22 09:19:58;;;;;;;10.85;4.90;;;7.90;93.80;;;;;;5112850;27;20031;-67
2023/02/22 09:22:23;;;;;;;12.90;4.80;;;7.90;93.70;;;;;;5110308;27;20057;-67
2023/02/22 09:24:51;;;;;;;7.90;3.15;;;8.00;93.60;;;;;;5109957;27;20548;-67
2023/02/22 09:27:18;;;;;;;9.60;3.78;;;8.00;93.50;;;;;;5109239;27;20032;-68
2023/02/22 09:29:47;;;;;;;5.85;3.30;;;8.10;93.50;;;;;;5111853;27;20011;-67
2023/02/22 09:32:12;;;;;;;7.90;3.55;;;8.10;93.40;;;;;;5113119;27;20509;-68
2023/02/22 09:34:44;;;;;;;11.70;3.60;;;8.20;93.40;;;;;;5113502;27;20015;-67
2023/02/22 09:37:10;;;;;;;6.93;2.95;;;8.20;93.30;;;;;;5103937;27;20114;-67
2023/02/22 09:39:36;;;;;;;9.85;4.22;;;8.30;93.30;;;;;;5110889;27;20020;-67
2023/02/22 09:42:13;;;;;;;9.25;3.38;;;8.30;93.20;;;;;;5114282;27;20076;-67
2023/02/22 09:44:47;;;;;;;9.25;3.50;;;8.30;93.20;;;;;;5108397;27;20020;-67
2023/02/22 09:47:32;;;;;;;13.27;5.28;;;8.30;93.10;;;;;;5113524;27;20504;-68
2023/02/22 09:50:14;;;;;;;11.32;4.10;;;8.30;93.20;;;;;;5108054;27;20550;-67
2023/02/22 09:52:58;;;;;;;10.55;4.68;;;8.40;93.20;;;;;;5103600;28;20177;-67
2023/02/22 09:55:40;;;;;;;13.50;4.40;;;8.40;93.30;;;;;;5105527;28;20020;-67
2023/02/22 09:58:18;;;;;;;12.95;4.65;;;8.40;93.10;;;;;;5106044;28;20088;-67
2023/02/22 10:00:47;;;;;;;10.35;4.10;;;8.40;93.10;;;;;;5108863;27;20024;-67
2023/02/22 10:03:18;;;;;;;15.10;4.88;;;8.50;93.10;;;;;;5112755;27;20041;-67
2023/02/22 10:06:05;;;;;;;12.73;3.83;;;8.50;93.00;;;;;;5106634;27;20030;-68
2023/02/22 10:08:34;;;;;;;12.18;4.15;;;8.60;93.10;;;;;;5103649;28;20028;-67
2023/02/22 10:11:36;;;;;;;5.80;2.72;;;8.70;92.90;;;;;;5103805;28;20114;-67
2023/02/22 10:14:22;;;;;;;13.48;3.60;;;8.80;92.70;;;;;;5106697;28;20042;-67
2023/02/22 10:17:10;;;;;;;11.35;4.47;;;9.00;92.70;;;;;;5105237;27;20028;-67
2023/02/22 10:19:51;;;;;;;9.48;3.97;;;9.00;92.50;;;;;;5102494;28;20024;-67
2023/02/22 10:22:19;;;;;;;13.40;4.28;;;9.00;92.40;;;;;;5104902;28;20099;-67
2023/02/22 10:25:07;;;;;;;13.85;4.47;;;9.00;92.40;;;;;;5105531;27;20024;-67
2023/02/22 10:27:56;;;;;;;12.38;3.90;;;9.10;92.50;;;;;;5104349;27;20098;-67
2023/02/22 10:30:27;;;;;;;10.13;3.40;;;9.20;92.60;;;;;;5109089;27;20034;-67
2023/02/22 10:33:19;;;;;;;12.27;4.30;;;9.20;92.20;;;;;;5108128;27;20028;-67
2023/02/22 10:35:45;;;;;;;9.05;3.40;;;9.20;92.30;;;;;;5106486;27;20477;-67
2023/02/22 10:38:16;;;;;;;13.48;4.80;;;9.30;92.30;;;;;;5109215;27;20027;-68
2023/02/22 10:41:08;;;;;;;16.43;5.60;;;9.30;92.20;;;;;;5099786;27;20114;-67
2023/02/22 10:43:40;;;;;;;15.40;6.43;;;9.30;92.20;;;;;;5113850;27;20055;-67
2023/02/22 10:46:12;;;;;;;10.07;3.95;;;9.30;92.20;;;;;;5106815;28;20043;-67
2023/02/22 10:48:39;;;;;;;;;;;9.50;92.20;;;;;;5102113;28;20485;-67
2023/02/22 10:51:07;;;;;;;13.20;4.65;;;9.60;92.00;;;;;;5101915;28;19933;-67
2023/02/22 10:53:36;;;;;;;12.80;4.50;;;9.70;91.90;;;;;;5106505;28;20103;-67
2023/02/22 10:56:14;;;;;;;13.88;5.05;;;9.70;91.70;;;;;;5101569;28;20031;-68
2023/02/22 10:58:45;;;;;;;10.00;4.35;;;9.80;91.80;;;;;;5106613;28;20538;-68
2023/02/22 11:01:20;;;;;;;10.63;3.67;;;9.90;91.70;;;;;;5102601;28;20386;-68
2023/02/22 11:04:11;;;;;;;12.57;5.65;;;10.00;91.60;;;;;;5102807;28;20020;-67
2023/02/22 11:06:41;;;;;;;22.65;8.80;;;10.10;91.40;;;;;;5103256;28;20390;-67
2023/02/22 11:09:17;;;;;;;18.58;6.72;;;10.10;91.30;;;;;;5104032;27;20024;-67
2023/02/22 11:11:45;;;;;;;21.70;7.78;;;10.10;91.30;;;;;;5110011;27;20031;-67
2023/02/22 11:14:25;;;;;;;19.38;6.55;;;10.10;91.30;;;;;;5107263;28;20031;-67
2023/02/22 11:16:53;;;;;;;17.95;5.75;;;10.20;91.30;;;;;;5104166;27;20465;-67
2023/02/22 11:19:25;;;;;;;12.10;4.85;;;10.30;91.30;;;;;;5104913;28;20034;-67
2023/02/22 11:21:55;;;;;;;16.85;6.03;;;10.50;91.20;;;;;;5103837;28;20019;-67
2023/02/22 11:24:23;;;;;;;13.30;5.18;;;10.50;90.80;;;;;;5102721;28;20826;-67
2023/02/22 11:26:55;;;;;;;16.38;5.53;;;10.70;90.90;;;;;;5103514;28;20012;-67
2023/02/22 11:29:42;;;;;;;14.80;5.60;;;10.80;90.70;;;;;;5103912;28;20028;-67
2023/02/22 11:32:22;;;;;;;17.27;5.65;;;11.00;90.60;;;;;;5106687;28;20058;-67
2023/02/22 11:34:51;;;;;;;16.63;5.57;;;11.00;90.20;;;;;;5104645;28;20110;-67
2023/02/22 11:37:31;;;;;;;15.68;6.55;;;11.00;90.00;;;;;;5099636;28;20039;-67
2023/02/22 11:40:18;;;;;;;17.33;5.82;;;10.90;90.10;;;;;;5109036;27;20133;-67
2023/02/22 11:43:10;;;;;;;8.82;4.00;;;10.90;90.20;;;;;;5106135;28;20707;-67
2023/02/22 11:45:37;;;;;;;14.25;5.05;;;11.00;90.20;;;;;;5096751;28;20932;-68
2023/02/22 11:48:05;;;;;;;18.33;6.05;;;11.00;90.10;;;;;;5097998;28;20024;-67
2023/02/22 11:50:38;;;;;;;17.40;5.72;;;11.00;90.10;;;;;;5107211;28;20063;-67
2023/02/22 11:53:30;;;;;;;15.55;5.03;;;11.00;90.00;;;;;;5098235;28;20138;-67
2023/02/22 11:56:30;;;;;;;19.53;6.30;;;11.10;90.10;;;;;;5102470;28;20100;-67
2023/02/22 11:59:10;;;;;;;13.23;4.53;;;11.20;89.90;;;;;;5104341;28;20348;-67
2023/02/22 12:02:03;;;;;;;12.15;5.13;;;11.20;89.70;;;;;;5102640;28;20073;-67
2023/02/22 12:04:46;;;;;;;17.45;5.68;;;11.20;89.80;;;;;;5101982;28;20031;-67
2023/02/22 12:07:28;;;;;;;18.02;7.53;;;11.20;89.20;;;;;;5103644;28;20031;-67
2023/02/22 12:10:12;;;;;;;14.15;5.85;;;11.10;89.00;;;;;;5105100;28;20106;-67
2023/02/22 12:13:00;;;;;;;16.30;5.75;;;11.10;89.30;;;;;;5099021;28;20036;-67
2023/02/22 12:15:45;;;;;;;22.40;6.85;;;11.20;89.40;;;;;;5103335;28;20027;-67
2023/02/22 12:18:27;;;;;;;12.63;5.68;;;11.30;90.10;;;;;;5100143;28;20505;-67
2023/02/22 12:20:57;;;;;;;11.23;5.30;;;11.30;88.90;;;;;;5107648;28;20027;-67
2023/02/22 12:23:43;;;;;;;16.13;6.20;;;11.40;89.20;;;;;;5101490;28;20046;-67
2023/02/22 12:26:21;;;;;;;11.90;4.90;;;11.30;88.50;;;;;;5111252;27;20043;-67
2023/02/22 12:29:11;;;;;;;12.88;4.40;;;11.40;88.90;;;;;;5113138;27;20056;-67
2023/02/22 12:31:47;;;;;;;10.52;3.85;;;11.40;88.90;;;;;;5111731;27;20164;-67
2023/02/22 12:34:25;;;;;;;15.77;5.75;;;11.60;88.70;;;;;;5111438;27;20501;-67
2023/02/22 12:36:57;;;;;;;11.40;4.25;;;11.60;88.40;;;;;;5109735;28;20027;-68
2023/02/22 12:39:31;;;;;;;11.60;4.18;;;11.70;88.40;;;;;;5110629;27;20011;-68
2023/02/22 12:42:00;;;;;;;14.73;5.45;;;11.80;88.70;;;;;;5108946;27;20027;-68
2023/02/22 12:44:51;;;;;;;11.10;3.85;;;11.70;88.00;;;;;;5105653;28;20016;-68
2023/02/22 12:47:25;;;;;;;10.40;3.78;;;11.80;87.80;;;;;;5100076;27;20167;-68
2023/02/22 12:50:11;;;;;;;12.75;4.97;;;11.80;87.80;;;;;;5104756;27;20024;-68
2023/02/22 12:52:58;;;;;;;9.32;3.85;;;11.80;87.80;;;;;;5109272;28;20031;-68
2023/02/22 12:55:49;;;;;;;7.82;3.75;;;12.00;88.00;;;;;;5107148;27;20031;-68
2023/02/22 12:58:24;;;;;;;11.27;4.45;;;12.00;87.70;;;;;;5105528;28;20024;-67
2023/02/22 13:01:05;;;;;;;11.75;3.95;;;12.00;87.70;;;;;;5099715;27;20402;-68
2023/02/22 13:03:37;;;;;;;12.40;4.70;;;12.10;87.70;;;;;;5102748;27;20094;-68
2023/02/22 13:06:25;;;;;;;13.35;5.25;;;12.20;87.70;;;;;;5106630;28;20031;-68
2023/02/22 13:09:18;;;;;;;10.55;3.67;;;12.20;87.30;;;;;;5102516;28;20027;-68
2023/02/22 13:12:02;;;;;;;11.60;4.43;;;12.20;87.40;;;;;;5110485;28;20054;-68